Time;durP1;ratioP1;P1;durP2;ratioP2;P2;SDS_P1;SDS_P2;PMS_P1;PMS_P2;Temp;Humidity;BMP_temperature;BMP_pressure;BME280_temperature;BME280_humidity;BME280_pressure;Samples;Min_cycle;Max_cycle;Signal;HPM_P1;HPM_P2
2021/07/17 00:01:16;;;;;;;6.60;2.22;;;16.30;87.50;;;;;;4898441;29;20021;-71
2021/07/17 00:03:42;;;;;;;4.57;1.80;;;16.30;88.00;;;;;;4898184;29;20039;-71
2021/07/17 00:06:08;;;;;;;4.15;1.83;;;16.20;88.60;;;;;;4898140;29;20448;-71
2021/07/17 00:08:33;;;;;;;5.53;1.90;;;16.10;89.20;;;;;;4897910;29;20040;-71
2021/07/17 00:10:59;;;;;;;6.55;2.03;;;16.10;89.60;;;;;;4897949;29;20024;-71
2021/07/17 00:13:25;;;;;;;3.25;1.77;;;16.10;90.00;;;;;;4898024;29;20131;-71
2021/07/17 00:15:51;;;;;;;4.80;1.77;;;16.10;90.10;;;;;;4897813;29;20039;-71
2021/07/17 00:18:18;;;;;;;4.32;2.08;;;16.10;90.30;;;;;;4897673;29;20449;-71
2021/07/17 00:20:45;;;;;;;2.58;1.50;;;16.10;90.50;;;;;;4897633;29;20086;-71
2021/07/17 00:23:11;;;;;;;3.53;1.60;;;16.10;90.60;;;;;;4897637;29;20039;-71
2021/07/17 00:25:37;;;;;;;4.88;1.73;;;16.10;90.70;;;;;;4897868;29;20028;-71
2021/07/17 00:28:03;;;;;;;4.53;1.58;;;16.10;90.90;;;;;;4897884;29;20068;-71
2021/07/17 00:30:29;;;;;;;3.72;1.70;;;16.10;91.10;;;;;;4897567;29;20370;-71
2021/07/17 00:32:54;;;;;;;4.90;1.83;;;16.10;91.20;;;;;;4897363;29;20044;-71
2021/07/17 00:35:20;;;;;;;4.63;1.77;;;16.10;91.40;;;;;;4897779;29;20028;-71
2021/07/17 00:37:46;;;;;;;3.22;1.42;;;16.00;91.60;;;;;;4897322;29;20389;-71
2021/07/17 00:40:14;;;;;;;4.93;1.73;;;16.00;91.80;;;;;;4897737;29;20088;-71
2021/07/17 00:42:42;;;;;;;4.00;1.73;;;16.00;92.00;;;;;;4897416;29;20388;-71
2021/07/17 00:45:09;;;;;;;7.47;1.80;;;16.00;92.30;;;;;;4897666;29;20075;-71
2021/07/17 00:47:36;;;;;;;2.47;1.30;;;16.00;92.40;;;;;;4897257;29;20039;-71
2021/07/17 00:50:07;;;;;;;2.80;1.65;;;15.90;92.70;;;;;;4897651;29;20174;-71
2021/07/17 00:52:33;;;;;;;4.13;1.45;;;15.90;93.10;;;;;;4896756;29;20036;-71
2021/07/17 00:54:59;;;;;;;3.85;1.50;;;15.80;93.50;;;;;;4897394;29;20040;-71
2021/07/17 00:57:26;;;;;;;2.05;1.20;;;15.80;93.90;;;;;;4897317;29;20487;-71
2021/07/17 00:59:54;;;;;;;3.55;1.27;;;15.80;94.30;;;;;;4897278;29;20033;-71
2021/07/17 01:02:23;;;;;;;2.85;1.40;;;15.80;94.60;;;;;;4897490;29;20039;-71
2021/07/17 01:04:49;;;;;;;2.92;1.52;;;15.70;94.80;;;;;;4897578;29;20048;-71
2021/07/17 01:07:17;;;;;;;2.55;1.40;;;15.70;95.30;;;;;;4896255;29;20492;-71
2021/07/17 01:09:42;;;;;;;4.28;1.90;;;15.70;95.50;;;;;;4896891;29;20115;-71
2021/07/17 01:12:08;;;;;;;5.40;1.55;;;15.70;95.90;;;;;;4897246;29;20115;-71
2021/07/17 01:14:34;;;;;;;3.78;1.38;;;15.70;96.30;;;;;;4896959;29;20031;-71
2021/07/17 01:17:00;;;;;;;5.55;1.65;;;15.70;96.60;;;;;;4897042;29;20036;-71
2021/07/17 01:53:08;;;;;;;3.08;1.20;;;15.60;99.90;;;;;;5348795;23;20064;-71
2021/07/17 01:55:34;;;;;;;3.38;1.20;;;15.70;99.90;;;;;;4915615;29;20096;-71
2021/07/17 01:58:01;;;;;;;2.55;1.00;;;15.70;99.90;;;;;;4915469;29;20032;-71
2021/07/17 02:00:28;;;;;;;3.67;1.27;;;15.70;99.90;;;;;;4915624;29;20024;-71
2021/07/17 02:02:54;;;;;;;4.65;1.45;;;15.70;99.90;;;;;;4915610;29;20041;-71
2021/07/17 02:05:24;;;;;;;1.98;1.00;;;15.60;99.90;;;;;;4915574;29;20127;-71
2021/07/17 02:07:50;;;;;;;2.45;1.35;;;15.60;99.90;;;;;;4915614;29;20052;-71
2021/07/17 02:10:20;;;;;;;1.77;1.00;;;15.60;99.90;;;;;;4915285;29;20032;-71
2021/07/17 02:13:00;;;;;;;3.30;1.00;;;15.60;99.90;;;;;;4915252;29;20036;-71
2021/07/17 02:15:27;;;;;;;1.52;0.82;;;15.60;99.90;;;;;;4915302;29;20616;-71
2021/07/17 02:17:53;;;;;;;2.25;1.10;;;15.60;99.90;;;;;;4916383;29;20039;-71
2021/07/17 02:20:20;;;;;;;2.20;1.10;;;15.60;99.90;;;;;;4918737;29;20036;-71
2021/07/17 02:22:45;;;;;;;2.78;1.35;;;15.60;99.90;;;;;;4918722;29;20488;-71
2021/07/17 02:25:11;;;;;;;3.28;1.23;;;15.60;99.90;;;;;;4918797;29;20039;-71
2021/07/17 02:27:37;;;;;;;1.90;1.10;;;15.60;99.90;;;;;;4918732;29;20028;-71
2021/07/17 02:30:07;;;;;;;2.55;1.10;;;15.60;99.90;;;;;;4918899;29;20064;-71
2021/07/17 02:32:33;;;;;;;2.85;1.02;;;15.70;99.90;;;;;;4918599;29;20107;-71
2021/07/17 02:34:59;;;;;;;1.40;1.00;;;15.70;99.90;;;;;;4918946;29;20115;-71
2021/07/17 02:37:25;;;;;;;1.80;0.90;;;15.70;99.90;;;;;;4918473;29;20031;-71
2021/07/17 02:39:51;;;;;;;2.58;1.02;;;15.80;99.90;;;;;;4918575;29;20032;-71
2021/07/17 02:42:17;;;;;;;3.63;0.98;;;15.80;99.90;;;;;;4918323;29;20044;-71
2021/07/17 02:44:43;;;;;;;2.70;0.98;;;15.90;99.90;;;;;;4918605;29;20072;-71
2021/07/17 02:47:09;;;;;;;2.03;0.95;;;15.90;99.90;;;;;;4918668;29;20032;-71
2021/07/17 02:49:34;;;;;;;1.90;0.80;;;16.00;99.90;;;;;;4918203;29;20095;-71
2021/07/17 02:52:00;;;;;;;0.90;0.60;;;16.00;99.90;;;;;;4917974;29;20032;-71
2021/07/17 02:54:26;;;;;;;0.80;0.60;;;16.10;99.90;;;;;;4918149;29;20063;-71
2021/07/17 02:56:52;;;;;;;2.75;0.80;;;16.10;99.90;;;;;;4918448;29;20031;-71
2021/07/17 02:59:18;;;;;;;2.42;0.82;;;16.10;99.90;;;;;;4918254;29;20059;-71
2021/07/17 03:01:43;;;;;;;2.70;0.90;;;16.20;99.90;;;;;;4918192;29;20488;-71
2021/07/17 03:04:09;;;;;;;1.58;0.80;;;16.20;99.90;;;;;;4918200;29;20059;-71
2021/07/17 03:06:35;;;;;;;2.65;0.65;;;16.30;99.90;;;;;;4918502;29;20028;-71
2021/07/17 03:09:04;;;;;;;1.83;0.80;;;16.40;99.90;;;;;;4917887;29;20087;-71
2021/07/17 03:11:33;;;;;;;1.77;0.82;;;16.40;99.90;;;;;;4917940;29;20028;-71
2021/07/17 03:14:00;;;;;;;4.60;0.93;;;16.50;99.90;;;;;;4917751;29;20036;-71
2021/07/17 03:16:26;;;;;;;1.17;0.70;;;16.50;99.90;;;;;;4917743;29;20059;-71
2021/07/17 03:18:53;;;;;;;4.20;0.73;;;16.50;99.90;;;;;;4917811;29;20123;-71
2021/07/17 03:21:19;;;;;;;1.13;0.68;;;16.60;99.90;;;;;;4917641;29;20024;-71
2021/07/17 03:23:45;;;;;;;2.30;0.93;;;16.70;99.90;;;;;;4917649;29;20028;-71
2021/07/17 03:26:11;;;;;;;3.20;0.90;;;16.90;99.90;;;;;;4917737;29;20499;-71
2021/07/17 03:28:37;;;;;;;0.73;0.52;;;17.10;99.90;;;;;;4917557;29;20028;-71
2021/07/17 03:31:02;;;;;;;2.40;0.80;;;17.20;99.90;;;;;;4917170;29;20028;-71
2021/07/17 03:33:29;;;;;;;0.85;0.60;;;17.30;99.90;;;;;;4917266;29;20036;-71
2021/07/17 03:35:57;;;;;;;1.52;0.80;;;17.30;99.90;;;;;;4917810;29;20028;-71
2021/07/17 03:38:24;;;;;;;1.08;0.70;;;17.30;99.90;;;;;;4917362;29;20032;-71
2021/07/17 03:40:50;;;;;;;1.77;0.80;;;17.30;99.90;;;;;;4917446;29;20035;-71
2021/07/17 03:43:16;;;;;;;4.28;0.63;;;17.30;99.90;;;;;;4917101;29;20024;-71
2021/07/17 03:45:42;;;;;;;2.05;0.80;;;17.30;99.90;;;;;;4917651;29;20028;-71
2021/07/17 03:48:08;;;;;;;2.63;0.80;;;17.30;99.90;;;;;;4917304;29;20365;-71
2021/07/17 03:50:34;;;;;;;2.15;0.65;;;17.40;99.90;;;;;;4917061;29;20040;-71
2021/07/17 03:53:00;;;;;;;2.70;0.70;;;17.50;99.90;;;;;;4916985;29;20052;-71
2021/07/17 03:55:25;;;;;;;1.45;0.60;;;17.60;99.90;;;;;;4916978;29;20060;-71
2021/07/17 03:57:51;;;;;;;1.20;0.65;;;17.50;99.90;;;;;;4917203;29;20110;-71
2021/07/17 04:00:17;;;;;;;1.38;0.80;;;17.60;99.90;;;;;;4917046;29;20024;-71
2021/07/17 04:02:44;;;;;;;1.73;0.70;;;17.60;99.90;;;;;;4917004;29;20021;-71
2021/07/17 04:05:12;;;;;;;1.55;0.70;;;17.60;99.90;;;;;;4917563;29;20036;-71
2021/07/17 04:07:39;;;;;;;0.98;0.70;;;17.60;99.90;;;;;;4917035;29;20033;-71
2021/07/17 04:10:06;;;;;;;2.80;0.75;;;17.60;99.90;;;;;;4916768;29;20032;-71
2021/07/17 04:12:32;;;;;;;1.35;0.68;;;17.60;99.90;;;;;;4916717;29;20036;-71
2021/07/17 04:14:59;;;;;;;5.45;0.80;;;17.50;99.90;;;;;;4916817;29;20028;-71
2021/07/17 04:17:25;;;;;;;1.75;0.60;;;17.50;99.90;;;;;;4916664;29;20039;-71
2021/07/17 04:19:51;;;;;;;2.45;0.50;;;17.50;99.90;;;;;;4916957;29;20440;-71
2021/07/17 04:22:17;;;;;;;1.48;0.60;;;17.50;99.90;;;;;;4916831;29;20028;-71
2021/07/17 04:24:43;;;;;;;1.83;0.93;;;17.50;99.90;;;;;;4916948;29;20110;-71
2021/07/17 04:27:09;;;;;;;1.30;0.82;;;17.50;99.90;;;;;;4916801;29;20160;-71
2021/07/17 04:29:34;;;;;;;1.25;0.65;;;17.50;99.90;;;;;;4916389;29;20095;-71
2021/07/17 04:32:00;;;;;;;2.15;0.65;;;17.50;99.90;;;;;;4916591;29;20024;-71
2021/07/17 04:34:26;;;;;;;2.95;0.80;;;17.50;99.90;;;;;;4916588;29;20051;-71
2021/07/17 04:36:53;;;;;;;1.60;0.68;;;17.50;99.90;;;;;;4916470;29;20024;-71
2021/07/17 04:39:19;;;;;;;1.90;0.57;;;17.50;99.90;;;;;;4916481;29;20031;-71
2021/07/17 04:41:45;;;;;;;0.55;0.52;;;17.60;99.90;;;;;;4916195;29;20436;-71
2021/07/17 04:44:10;;;;;;;2.00;0.60;;;17.60;99.90;;;;;;4916328;29;20032;-71
2021/07/17 04:46:36;;;;;;;1.65;0.75;;;17.70;99.90;;;;;;4916468;29;20039;-71
2021/07/17 04:49:02;;;;;;;2.08;0.70;;;17.70;99.90;;;;;;4916249;29;20384;-71
2021/07/17 04:51:28;;;;;;;0.90;0.57;;;17.70;99.90;;;;;;4916295;29;20028;-71
2021/07/17 04:53:54;;;;;;;2.35;0.90;;;17.70;99.90;;;;;;4915771;29;20048;-71
2021/07/17 04:56:19;;;;;;;1.65;0.50;;;17.80;99.90;;;;;;4916242;29;20424;-71
2021/07/17 04:58:45;;;;;;;1.27;0.60;;;17.90;99.90;;;;;;4916096;29;20032;-71
2021/07/17 05:01:11;;;;;;;2.75;0.77;;;17.90;99.90;;;;;;4916290;29;20429;-71
2021/07/17 05:03:38;;;;;;;1.63;0.30;;;17.90;99.90;;;;;;4916115;29;20687;-71
2021/07/17 05:06:04;;;;;;;1.75;0.57;;;17.90;99.90;;;;;;4916286;29;20115;-71
2021/07/17 05:08:30;;;;;;;0.60;0.40;;;18.00;99.90;;;;;;4916034;29;20428;-71
2021/07/17 05:10:56;;;;;;;1.25;0.50;;;18.00;99.90;;;;;;4915982;29;20030;-71
2021/07/17 05:13:24;;;;;;;0.85;0.70;;;18.10;99.90;;;;;;4915619;29;20039;-71
2021/07/17 05:15:50;;;;;;;2.00;0.75;;;18.30;99.90;;;;;;4916502;29;20030;-71
2021/07/17 05:18:16;;;;;;;1.25;0.55;;;18.40;99.90;;;;;;4915776;29;20508;-71
2021/07/17 05:20:43;;;;;;;0.93;0.50;;;18.60;99.70;;;;;;4915700;29;20452;-71
2021/07/17 05:23:10;;;;;;;0.55;0.55;;;18.80;99.50;;;;;;4915685;29;20028;-71
2021/07/17 05:25:37;;;;;;;0.80;0.47;;;19.00;99.30;;;;;;4915587;29;20032;-71
2021/07/17 05:28:03;;;;;;;0.75;0.52;;;19.50;98.70;;;;;;4915619;29;20492;-71
2021/07/17 05:30:29;;;;;;;1.08;0.45;;;19.90;97.60;;;;;;4915894;29;20103;-71
2021/07/17 05:32:55;;;;;;;1.98;0.70;;;20.30;97.00;;;;;;4915575;29;20139;-71
2021/07/17 05:35:21;;;;;;;0.95;0.50;;;20.50;95.40;;;;;;4915808;29;20029;-71
2021/07/17 05:37:47;;;;;;;0.90;0.50;;;20.60;94.30;;;;;;4915852;29;20411;-71
2021/07/17 05:40:14;;;;;;;1.35;0.40;;;20.70;94.10;;;;;;4915848;29;20432;-71
2021/07/17 05:42:40;;;;;;;0.55;0.50;;;20.70;93.50;;;;;;4915779;29;20047;-71
2021/07/17 05:45:06;;;;;;;0.95;0.50;;;20.80;93.30;;;;;;4915549;29;20036;-71
2021/07/17 05:47:32;;;;;;;1.08;0.50;;;21.10;92.80;;;;;;4915417;29;20028;-71
2021/07/17 05:49:58;;;;;;;0.88;0.40;;;21.30;92.00;;;;;;4915521;29;20039;-71
2021/07/17 05:52:23;;;;;;;1.98;0.63;;;21.50;91.80;;;;;;4915446;29;20052;-71
2021/07/17 05:54:49;;;;;;;0.95;0.50;;;21.70;91.30;;;;;;4919319;29;20028;-71
2021/07/17 05:57:15;;;;;;;1.65;0.57;;;22.00;90.70;;;;;;4919565;29;20024;-71
2021/07/17 05:59:41;;;;;;;0.90;0.55;;;22.10;89.70;;;;;;4919096;29;20111;-71
2021/07/17 06:02:08;;;;;;;1.17;0.60;;;22.20;89.20;;;;;;4919277;29;20016;-71
2021/07/17 06:04:34;;;;;;;2.13;0.52;;;22.50;87.90;;;;;;4919043;29;20028;-71
2021/07/17 06:06:59;;;;;;;2.25;0.60;;;22.60;85.80;;;;;;4919193;29;20491;-71
2021/07/17 06:09:25;;;;;;;1.88;0.50;;;22.70;85.30;;;;;;4918988;29;20048;-71
2021/07/17 06:11:51;;;;;;;1.85;0.52;;;23.00;84.90;;;;;;4919124;29;20075;-71
2021/07/17 06:14:17;;;;;;;0.47;0.47;;;23.20;83.90;;;;;;4918911;29;20044;-71
2021/07/17 06:16:43;;;;;;;0.90;0.45;;;23.40;81.30;;;;;;4918890;29;20480;-71
2021/07/17 06:19:09;;;;;;;0.80;0.60;;;23.30;80.40;;;;;;4918849;29;20028;-71
2021/07/17 06:21:34;;;;;;;1.02;0.70;;;23.40;79.50;;;;;;4918808;29;20436;-71
2021/07/17 06:24:00;;;;;;;0.90;0.50;;;23.30;79.20;;;;;;4901901;29;20507;-71
2021/07/17 06:26:26;;;;;;;0.75;0.50;;;23.50;78.70;;;;;;4918884;29;20062;-71
2021/07/17 06:28:52;;;;;;;1.23;0.50;;;23.60;77.70;;;;;;4918712;29;20384;-72
2021/07/17 06:31:19;;;;;;;0.70;0.50;;;23.60;76.90;;;;;;4918777;29;20032;-72
2021/07/17 06:33:46;;;;;;;1.40;0.60;;;23.60;76.10;;;;;;4918677;29;20373;-72
2021/07/17 06:36:12;;;;;;;0.75;0.40;;;23.50;74.80;;;;;;4918700;29;20020;-71
2021/07/17 06:38:38;;;;;;;2.80;0.50;;;23.70;74.60;;;;;;4918413;29;20036;-71
2021/07/17 06:41:03;;;;;;;2.35;0.40;;;23.60;74.30;;;;;;4918918;29;20107;-71
2021/07/17 06:43:30;;;;;;;0.93;0.60;;;23.80;74.30;;;;;;4918455;29;20036;-71
2021/07/17 06:45:56;;;;;;;0.90;0.80;;;23.70;71.60;;;;;;4918503;29;20024;-72
2021/07/17 06:48:22;;;;;;;0.98;0.77;;;23.60;71.60;;;;;;4918313;29;20414;-71
2021/07/17 06:50:48;;;;;;;1.90;0.70;;;23.60;71.90;;;;;;4918263;29;20484;-71
2021/07/17 06:53:15;;;;;;;1.50;0.52;;;23.70;71.20;;;;;;4917918;29;20096;-71
2021/07/17 06:55:41;;;;;;;1.02;0.70;;;23.70;71.50;;;;;;4918089;29;20043;-71
2021/07/17 06:58:07;;;;;;;0.82;0.70;;;23.60;70.20;;;;;;4918180;29;20201;-71
2021/07/17 07:00:34;;;;;;;1.40;1.00;;;23.40;69.70;;;;;;4918335;29;20220;-72
2021/07/17 07:03:04;;;;;;;0.75;0.65;;;23.30;70.90;;;;;;4901183;29;20024;-71
2021/07/17 07:05:30;;;;;;;;;;;23.50;70.70;;;;;;4917111;29;20373;-71
2021/07/17 07:07:56;;;;;;;1.80;0.90;;;23.60;70.10;;;;;;4918153;29;19914;-71
2021/07/17 07:10:22;;;;;;;6.30;1.20;;;23.70;70.30;;;;;;4918188;29;20032;-72
2021/07/17 07:12:48;;;;;;;3.40;0.90;;;23.70;68.80;;;;;;4917680;29;20032;-72
2021/07/17 07:15:15;;;;;;;1.30;0.95;;;23.50;68.00;;;;;;4918085;29;20428;-72
2021/07/17 07:17:40;;;;;;;2.38;1.10;;;23.40;68.80;;;;;;4917738;29;20020;-72
2021/07/17 07:20:08;;;;;;;2.65;0.80;;;23.30;69.10;;;;;;4917870;29;20028;-72
2021/07/17 07:22:34;;;;;;;2.35;1.02;;;23.30;69.50;;;;;;4917609;29;20028;-72
2021/07/17 07:25:00;;;;;;;1.27;0.93;;;23.30;69.70;;;;;;4918010;29;20039;-72
2021/07/17 07:27:25;;;;;;;1.88;1.10;;;23.30;69.90;;;;;;4917582;29;20078;-72
2021/07/17 07:29:52;;;;;;;1.10;1.00;;;23.50;69.00;;;;;;4917580;29;20028;-72
2021/07/17 07:32:19;;;;;;;1.30;1.15;;;23.50;69.40;;;;;;4917546;29;20040;-72
2021/07/17 07:34:44;;;;;;;1.98;1.35;;;23.40;67.70;;;;;;4917573;29;20451;-72
2021/07/17 07:37:10;;;;;;;1.30;1.10;;;23.40;68.40;;;;;;4917823;29;20119;-72
2021/07/17 07:39:36;;;;;;;1.58;1.00;;;23.50;67.70;;;;;;4917554;29;20027;-72
2021/07/17 07:42:03;;;;;;;2.08;1.17;;;23.50;67.60;;;;;;4917981;29;20034;-72
2021/07/17 07:44:30;;;;;;;1.55;1.10;;;23.60;66.90;;;;;;4917116;29;20020;-72
2021/07/17 07:46:55;;;;;;;18.30;1.67;;;23.60;67.80;;;;;;4917319;29;20024;-72
2021/07/17 07:49:21;;;;;;;2.92;1.02;;;23.60;67.00;;;;;;4917290;29;20107;-71
2021/07/17 07:51:47;;;;;;;1.45;1.08;;;23.50;66.70;;;;;;4917079;29;20032;-71
2021/07/17 07:54:13;;;;;;;5.30;1.40;;;23.50;67.10;;;;;;4917143;29;20548;-71
2021/07/17 07:56:39;;;;;;;11.82;1.65;;;23.40;66.40;;;;;;4917330;29;20024;-71
2021/07/17 07:59:05;;;;;;;3.83;1.33;;;23.40;67.10;;;;;;4917416;29;20380;-71
2021/07/17 08:01:31;;;;;;;5.18;1.60;;;23.50;65.90;;;;;;4916996;29;20476;-71
2021/07/17 08:03:57;;;;;;;1.90;1.40;;;23.50;66.10;;;;;;4917383;29;20028;-72
2021/07/17 08:06:22;;;;;;;7.78;1.40;;;23.50;65.80;;;;;;4917338;29;20558;-76
2021/07/17 08:08:48;;;;;;;2.10;1.38;;;23.60;65.90;;;;;;4916779;29;20441;-71
2021/07/17 08:11:14;;;;;;;2.17;1.42;;;23.50;65.20;;;;;;4917162;29;20480;-71
2021/07/17 08:13:40;;;;;;;2.75;1.10;;;23.30;64.10;;;;;;4916602;29;20068;-72
2021/07/17 08:16:05;;;;;;;1.45;1.35;;;23.20;64.20;;;;;;4916414;29;20121;-72
2021/07/17 08:18:31;;;;;;;3.00;1.10;;;23.10;64.10;;;;;;4916968;29;20114;-71
2021/07/17 08:20:57;;;;;;;2.00;1.27;;;23.10;64.10;;;;;;4916647;29;20476;-71
2021/07/17 08:23:24;;;;;;;1.70;1.35;;;23.10;63.70;;;;;;4916637;29;20484;-72
2021/07/17 08:25:50;;;;;;;2.13;1.20;;;23.10;64.10;;;;;;4916495;29;20039;-72
2021/07/17 08:28:16;;;;;;;1.98;1.67;;;23.10;63.90;;;;;;4916947;29;20029;-72
2021/07/17 08:30:43;;;;;;;3.38;1.52;;;23.10;63.70;;;;;;4916649;29;20472;-72
2021/07/17 08:33:09;;;;;;;2.08;1.60;;;23.10;63.50;;;;;;4916705;29;20042;-72
2021/07/17 08:35:35;;;;;;;5.82;1.85;;;23.10;63.30;;;;;;4916569;29;20023;-72
2021/07/17 08:38:00;;;;;;;3.05;1.70;;;23.10;63.30;;;;;;4916481;29;20511;-72
2021/07/17 08:40:27;;;;;;;3.30;1.50;;;23.10;64.20;;;;;;4916678;29;20028;-72
2021/07/17 08:42:55;;;;;;;2.25;1.48;;;23.20;64.20;;;;;;4916170;29;20119;-72
2021/07/17 08:45:22;;;;;;;4.68;2.10;;;23.30;64.30;;;;;;4916418;29;20032;-72
2021/07/17 08:47:51;;;;;;;1.92;1.50;;;23.50;65.40;;;;;;4916715;29;20095;-71
2021/07/17 08:50:22;;;;;;;4.13;1.90;;;23.50;64.00;;;;;;4916207;29;20020;-72
2021/07/17 08:52:53;;;;;;;3.17;1.45;;;23.70;65.30;;;;;;4915921;29;20056;-72
2021/07/17 08:55:20;;;;;;;3.00;1.70;;;23.60;62.60;;;;;;4916100;29;20048;-72
2021/07/17 08:57:46;;;;;;;3.10;1.58;;;23.50;63.60;;;;;;4916011;29;20070;-71
2021/07/17 09:00:14;;;;;;;3.28;1.98;;;23.40;63.60;;;;;;4916025;29;20063;-72
2021/07/17 09:02:45;;;;;;;5.47;1.70;;;23.50;63.90;;;;;;4915960;29;20032;-72
2021/07/17 09:05:14;;;;;;;2.97;1.80;;;23.60;62.50;;;;;;4898951;29;20024;-72
2021/07/17 09:07:40;;;;;;;3.00;1.70;;;23.60;62.40;;;;;;4915926;29;20441;-72
2021/07/17 09:10:36;;;;;;;7.82;2.58;;;23.60;62.40;;;;;;4915884;29;20024;-72
2021/07/17 09:13:16;;;;;;;2.10;1.80;;;23.60;61.80;;;;;;4915868;29;20115;-72
2021/07/17 09:15:48;;;;;;;2.53;1.80;;;23.50;61.00;;;;;;4915694;29;20032;-72
2021/07/17 09:18:15;;;;;;;2.03;1.70;;;23.50;61.90;;;;;;4916150;29;20032;-72
2021/07/17 09:20:55;;;;;;;2.72;2.00;;;23.60;61.00;;;;;;4898686;29;20115;-72
2021/07/17 09:23:25;;;;;;;3.63;1.90;;;23.50;60.30;;;;;;4916084;29;20053;-72
2021/07/17 09:25:51;;;;;;;2.47;1.67;;;23.50;59.50;;;;;;4915816;29;20111;-71
2021/07/17 09:28:25;;;;;;;2.72;1.90;;;23.30;59.10;;;;;;4915328;29;20092;-72
2021/07/17 09:30:55;;;;;;;2.30;1.60;;;23.30;59.60;;;;;;4915547;29;20035;-72
2021/07/17 09:33:21;;;;;;;2.85;1.75;;;23.20;60.00;;;;;;4915638;29;20042;-72
2021/07/17 09:35:48;;;;;;;3.85;1.70;;;23.30;61.00;;;;;;4915709;29;20106;-72
2021/07/17 09:38:17;;;;;;;3.22;1.55;;;23.30;60.00;;;;;;4915663;29;20035;-72
2021/07/17 09:40:57;;;;;;;4.35;1.77;;;23.40;60.00;;;;;;4915644;29;20035;-72
2021/07/17 09:43:42;;;;;;;2.70;1.70;;;23.40;59.70;;;;;;4915922;29;20388;-72
2021/07/17 09:46:22;;;;;;;3.75;1.55;;;23.50;60.10;;;;;;4915568;29;20212;-72
2021/07/17 09:48:52;;;;;;;3.42;2.25;;;23.50;59.90;;;;;;4915393;29;20515;-72
2021/07/17 09:51:20;;;;;;;1.90;1.45;;;23.40;59.80;;;;;;4915553;29;20040;-72
2021/07/17 09:53:45;;;;;;;5.40;1.55;;;23.50;60.40;;;;;;4895202;29;20109;-72
2021/07/17 09:56:13;;;;;;;5.65;1.75;;;23.60;60.00;;;;;;4896627;29;20068;-72
2021/07/17 09:58:40;;;;;;;3.40;1.77;;;23.60;59.70;;;;;;4896751;29;20104;-72
2021/07/17 10:01:26;;;;;;;6.70;1.70;;;23.80;59.40;;;;;;4896559;29;20545;-72
2021/07/17 10:03:58;;;;;;;4.57;1.67;;;23.90;59.10;;;;;;4896510;29;20112;-72
2021/07/17 10:06:25;;;;;;;2.25;1.70;;;23.90;59.30;;;;;;4896537;29;20490;-72
2021/07/17 10:08:51;;;;;;;3.35;1.85;;;24.00;59.60;;;;;;4896645;29;20029;-72
2021/07/17 10:11:25;;;;;;;2.95;1.70;;;24.00;59.00;;;;;;4896488;29;20492;-72
2021/07/17 10:13:52;;;;;;;3.42;1.58;;;24.00;58.60;;;;;;4896345;29;20088;-72
2021/07/17 10:16:23;;;;;;;4.28;1.70;;;23.90;59.10;;;;;;4896546;29;20215;-72
2021/07/17 10:18:49;;;;;;;3.08;1.80;;;23.80;58.40;;;;;;4896576;29;20111;-72
2021/07/17 10:21:16;;;;;;;1.90;1.42;;;23.80;59.50;;;;;;4896247;29;20037;-72
2021/07/17 10:23:43;;;;;;;2.47;1.60;;;23.90;59.70;;;;;;4896346;29;20111;-72
2021/07/17 10:26:09;;;;;;;5.47;1.58;;;23.90;60.10;;;;;;4896411;29;20059;-72
2021/07/17 10:28:36;;;;;;;2.85;1.30;;;23.90;59.60;;;;;;4896172;29;20081;-72
2021/07/17 10:31:03;;;;;;;1.85;1.40;;;23.90;60.60;;;;;;4896348;29;20056;-72
2021/07/17 10:33:33;;;;;;;2.75;1.75;;;23.90;61.20;;;;;;4896300;29;20032;-72
2021/07/17 10:36:09;;;;;;;2.40;1.60;;;23.90;60.80;;;;;;4896188;29;20503;-72
2021/07/17 10:38:39;;;;;;;3.25;1.48;;;24.00;59.40;;;;;;4896667;29;20120;-72
2021/07/17 10:41:05;;;;;;;;;;;24.00;60.20;;;;;;4900024;29;20031;-72
2021/07/17 10:43:30;;;;;;;3.10;1.52;;;24.10;60.90;;;;;;4899969;29;20350;-72
2021/07/17 10:45:56;;;;;;;2.95;1.60;;;24.00;58.70;;;;;;4899450;29;20039;-72
2021/07/17 10:48:31;;;;;;;2.83;1.55;;;24.00;59.40;;;;;;4899540;29;20052;-72
2021/07/17 10:51:20;;;;;;;3.55;1.30;;;24.10;59.60;;;;;;4899384;29;20025;-72
2021/07/17 10:53:49;;;;;;;4.90;1.50;;;24.20;59.00;;;;;;4915040;29;20052;-72
2021/07/17 10:56:30;;;;;;;3.20;1.60;;;24.30;56.80;;;;;;4918301;29;20080;-72
2021/07/17 10:59:00;;;;;;;4.25;1.73;;;24.30;57.10;;;;;;4918183;29;20071;-72
2021/07/17 11:01:26;;;;;;;2.97;1.70;;;24.30;56.60;;;;;;4918210;29;20020;-72
2021/07/17 11:03:53;;;;;;;2.05;1.52;;;24.20;57.40;;;;;;4918070;29;20032;-72
2021/07/17 11:06:25;;;;;;;4.07;1.30;;;24.20;58.50;;;;;;4918025;29;20055;-72
2021/07/17 11:08:51;;;;;;;3.33;1.30;;;24.20;57.10;;;;;;4918000;29;20416;-72
2021/07/17 11:11:30;;;;;;;2.60;1.38;;;24.30;58.10;;;;;;4918022;29;20499;-72
2021/07/17 11:14:18;;;;;;;6.63;1.50;;;24.30;56.80;;;;;;4917740;29;20573;-72
2021/07/17 11:16:43;;;;;;;2.20;1.35;;;24.30;57.00;;;;;;4917708;29;20054;-72
2021/07/17 11:19:16;;;;;;;5.90;1.52;;;24.30;57.10;;;;;;4917837;29;20448;-72
2021/07/17 11:21:43;;;;;;;1.75;1.33;;;24.40;57.50;;;;;;4918012;29;20031;-72
2021/07/17 11:24:10;;;;;;;2.17;1.38;;;24.50;57.10;;;;;;4917598;29;20036;-71
2021/07/17 11:26:38;;;;;;;5.40;1.70;;;24.50;57.20;;;;;;4918037;29;20047;-72
2021/07/17 11:29:10;;;;;;;2.92;1.33;;;24.50;56.20;;;;;;4917741;29;20024;-72
2021/07/17 11:31:39;;;;;;;1.70;1.38;;;24.40;56.50;;;;;;4917630;29;20425;-72
2021/07/17 11:34:17;;;;;;;1.92;1.30;;;24.40;56.40;;;;;;4917541;29;20033;-72
2021/07/17 11:36:46;;;;;;;3.58;1.17;;;24.30;55.60;;;;;;4917514;29;20024;-71
2021/07/17 11:39:18;;;;;;;2.33;1.33;;;24.20;55.20;;;;;;4917806;29;20436;-72
2021/07/17 11:41:44;;;;;;;1.65;1.23;;;24.10;55.30;;;;;;4917367;29;20052;-72
2021/07/17 11:44:10;;;;;;;2.50;1.33;;;24.10;55.60;;;;;;4917797;29;20047;-72
2021/07/17 11:46:36;;;;;;;2.80;1.30;;;24.10;55.30;;;;;;4917575;29;20464;-72
2021/07/17 11:49:10;;;;;;;4.00;1.80;;;24.00;55.90;;;;;;4917510;29;20028;-72
2021/07/17 11:51:55;;;;;;;3.80;1.52;;;24.00;56.20;;;;;;4916680;29;20040;-72
2021/07/17 11:54:27;;;;;;;4.05;1.33;;;24.00;56.40;;;;;;4917314;29;20083;-72
2021/07/17 11:57:13;;;;;;;2.65;1.50;;;23.90;56.50;;;;;;4917257;29;20107;-72
2021/07/17 11:59:45;;;;;;;1.90;1.30;;;23.80;56.80;;;;;;4917196;29;20032;-72
2021/07/17 12:02:16;;;;;;;3.85;1.83;;;23.80;56.60;;;;;;4917489;29;20028;-72
2021/07/17 12:04:43;;;;;;;2.05;1.40;;;23.70;56.40;;;;;;4917174;29;20437;-72
2021/07/17 12:07:14;;;;;;;6.88;1.42;;;23.70;56.30;;;;;;4917289;29;20032;-71
2021/07/17 12:09:48;;;;;;;1.80;1.17;;;23.70;55.70;;;;;;4917176;29;20443;-72
2021/07/17 12:12:39;;;;;;;3.72;1.52;;;23.70;55.80;;;;;;4917086;29;20028;-72
2021/07/17 12:15:21;;;;;;;1.83;1.20;;;23.60;55.60;;;;;;4916896;29;20050;-72
2021/07/17 12:17:47;;;;;;;3.17;1.50;;;23.50;55.50;;;;;;4916976;29;20502;-72
2021/07/17 12:20:25;;;;;;;3.05;1.40;;;23.50;55.10;;;;;;4916784;29;20028;-72
2021/07/17 12:22:54;;;;;;;1.45;1.15;;;23.50;55.60;;;;;;4916953;29;20032;-72
2021/07/17 12:25:23;;;;;;;3.75;1.30;;;23.50;55.80;;;;;;4916843;29;20028;-72
2021/07/17 12:27:59;;;;;;;2.55;1.45;;;23.60;55.60;;;;;;4916606;29;20547;-72
2021/07/17 12:30:39;;;;;;;2.60;1.33;;;23.60;54.70;;;;;;4899765;29;20055;-72
2021/07/17 12:33:13;;;;;;;3.45;1.27;;;23.60;55.50;;;;;;4916976;29;20032;-72
2021/07/17 12:35:39;;;;;;;3.30;1.40;;;23.60;55.90;;;;;;4916554;29;20449;-72
2021/07/17 12:38:20;;;;;;;2.85;1.15;;;23.70;55.90;;;;;;4916704;29;20490;-72
2021/07/17 12:40:49;;;;;;;1.63;1.13;;;23.70;55.90;;;;;;4916216;29;20111;-72
2021/07/17 12:43:22;;;;;;;;;;;23.80;55.60;;;;;;4916878;29;20481;-72
2021/07/17 12:46:06;;;;;;;3.45;1.35;;;23.90;55.10;;;;;;4916260;29;19910;-72
2021/07/17 12:48:51;;;;;;;2.42;1.23;;;24.00;55.90;;;;;;4916705;29;20433;-72
2021/07/17 12:51:23;;;;;;;4.03;1.83;;;24.00;56.10;;;;;;4916246;29;20024;-72
2021/07/17 12:53:51;;;;;;;2.03;1.20;;;24.00;55.60;;;;;;4915914;29;20199;-72
2021/07/17 12:56:45;;;;;;;2.30;1.48;;;24.00;54.40;;;;;;4916218;29;20024;-72
2021/07/17 12:59:12;;;;;;;2.25;1.35;;;23.90;54.70;;;;;;4909022;29;20067;-72
2021/07/17 13:01:43;;;;;;;2.05;1.45;;;23.90;54.70;;;;;;4915985;29;20179;-72
2021/07/17 13:04:14;;;;;;;2.22;1.20;;;23.90;54.90;;;;;;4916107;29;20032;-72
2021/07/17 13:06:41;;;;;;;1.30;1.00;;;23.90;55.50;;;;;;4915996;29;20031;-72
2021/07/17 13:09:07;;;;;;;2.78;1.30;;;23.90;54.40;;;;;;4915873;29;20035;-72
2021/07/17 13:11:33;;;;;;;4.18;1.10;;;23.80;55.10;;;;;;4916137;29;20418;-72
2021/07/17 13:14:02;;;;;;;2.28;1.10;;;23.80;54.70;;;;;;4915870;29;20140;-72
2021/07/17 13:16:36;;;;;;;3.35;1.35;;;23.80;55.20;;;;;;4915889;29;20031;-72
2021/07/17 13:19:07;;;;;;;1.73;1.10;;;23.90;54.80;;;;;;4898771;29;20476;-71
2021/07/17 13:21:38;;;;;;;1.58;1.10;;;23.80;53.50;;;;;;4915790;29;20028;-72
2021/07/17 13:24:05;;;;;;;3.17;1.17;;;23.70;53.80;;;;;;4915807;29;20032;-72
2021/07/17 13:26:34;;;;;;;2.75;1.17;;;23.60;53.20;;;;;;4916084;29;20032;-72